sensor_id;sensor_type;location;lat;lon;timestamp;P1;durP1;ratioP1;P2;durP2;ratioP2
12072;SDS011;6098;49.004;8.372;2023-07-22T00:01:30;9.51;;;3.78;;
12072;SDS011;6098;49.004;8.372;2023-07-22T00:16:22;3.72;;;2.73;;
12072;SDS011;6098;49.004;8.372;2023-07-22T00:31:14;3.83;;;2.16;;
12072;SDS011;6098;49.004;8.372;2023-07-22T00:46:05;5.77;;;3.14;;
12072;SDS011;6098;49.004;8.372;2023-07-22T01:00:57;4.64;;;2.97;;
12072;SDS011;6098;49.004;8.372;2023-07-22T01:16:05;3.81;;;2.67;;
12072;SDS011;6098;49.004;8.372;2023-07-22T01:30:53;4.40;;;2.62;;
12072;SDS011;6098;49.004;8.372;2023-07-22T01:45:45;4.57;;;2.63;;
12072;SDS011;6098;49.004;8.372;2023-07-22T02:00:36;4.08;;;2.54;;
12072;SDS011;6098;49.004;8.372;2023-07-22T02:15:27;5.27;;;2.56;;
12072;SDS011;6098;49.004;8.372;2023-07-22T02:30:18;7.28;;;3.23;;
12072;SDS011;6098;49.004;8.372;2023-07-22T02:45:10;5.67;;;3.13;;
12072;SDS011;6098;49.004;8.372;2023-07-22T03:15:18;4.43;;;2.83;;
12072;SDS011;6098;49.004;8.372;2023-07-22T03:30:13;7.64;;;3.48;;
12072;SDS011;6098;49.004;8.372;2023-07-22T03:45:03;6.11;;;3.20;;
12072;SDS011;6098;49.004;8.372;2023-07-22T03:59:55;4.49;;;3.14;;
12072;SDS011;6098;49.004;8.372;2023-07-22T04:14:49;5.63;;;3.76;;
12072;SDS011;6098;49.004;8.372;2023-07-22T04:29:41;5.88;;;3.37;;
12072;SDS011;6098;49.004;8.372;2023-07-22T04:44:34;5.84;;;3.18;;
12072;SDS011;6098;49.004;8.372;2023-07-22T04:59:28;6.31;;;3.40;;
12072;SDS011;6098;49.004;8.372;2023-07-22T05:14:19;4.10;;;3.13;;
12072;SDS011;6098;49.004;8.372;2023-07-22T05:29:11;5.82;;;2.94;;
12072;SDS011;6098;49.004;8.372;2023-07-22T05:44:04;5.00;;;3.02;;
12072;SDS011;6098;49.004;8.372;2023-07-22T05:58:56;3.11;;;2.63;;
12072;SDS011;6098;49.004;8.372;2023-07-22T06:13:49;4.30;;;3.11;;
12072;SDS011;6098;49.004;8.372;2023-07-22T06:28:42;3.37;;;2.52;;
12072;SDS011;6098;49.004;8.372;2023-07-22T06:43:35;3.67;;;2.44;;
12072;SDS011;6098;49.004;8.372;2023-07-22T06:58:28;3.70;;;2.64;;
12072;SDS011;6098;49.004;8.372;2023-07-22T07:13:22;4.22;;;2.43;;
12072;SDS011;6098;49.004;8.372;2023-07-22T07:28:14;3.89;;;2.31;;
12072;SDS011;6098;49.004;8.372;2023-07-22T07:43:07;4.59;;;2.53;;
12072;SDS011;6098;49.004;8.372;2023-07-22T07:58:00;6.97;;;2.67;;
12072;SDS011;6098;49.004;8.372;2023-07-22T08:12:54;4.01;;;2.14;;
12072;SDS011;6098;49.004;8.372;2023-07-22T08:27:47;2.86;;;1.81;;
12072;SDS011;6098;49.004;8.372;2023-07-22T08:42:41;2.91;;;2.11;;
12072;SDS011;6098;49.004;8.372;2023-07-22T08:57:33;2.11;;;1.91;;
12072;SDS011;6098;49.004;8.372;2023-07-22T09:12:28;2.56;;;1.71;;
12072;SDS011;6098;49.004;8.372;2023-07-22T09:42:32;2.09;;;1.70;;
12072;SDS011;6098;49.004;8.372;2023-07-22T09:57:24;3.56;;;2.22;;
12072;SDS011;6098;49.004;8.372;2023-07-22T10:12:16;2.44;;;1.76;;
12072;SDS011;6098;49.004;8.372;2023-07-22T10:27:12;2.74;;;1.60;;
12072;SDS011;6098;49.004;8.372;2023-07-22T10:42:04;3.56;;;1.90;;
12072;SDS011;6098;49.004;8.372;2023-07-22T10:56:57;2.40;;;1.84;;
12072;SDS011;6098;49.004;8.372;2023-07-22T11:11:51;2.62;;;1.89;;
12072;SDS011;6098;49.004;8.372;2023-07-22T11:26:47;3.45;;;1.70;;
12072;SDS011;6098;49.004;8.372;2023-07-22T11:41:40;2.05;;;1.73;;
12072;SDS011;6098;49.004;8.372;2023-07-22T11:56:35;2.03;;;1.80;;
12072;SDS011;6098;49.004;8.372;2023-07-22T12:11:26;2.30;;;1.70;;
12072;SDS011;6098;49.004;8.372;2023-07-22T12:26:21;3.47;;;2.10;;
12072;SDS011;6098;49.004;8.372;2023-07-22T12:41:14;3.48;;;1.84;;
12072;SDS011;6098;49.004;8.372;2023-07-22T12:56:08;3.09;;;1.82;;
12072;SDS011;6098;49.004;8.372;2023-07-22T13:11:02;3.78;;;2.00;;
12072;SDS011;6098;49.004;8.372;2023-07-22T13:25:55;4.97;;;2.10;;
12072;SDS011;6098;49.004;8.372;2023-07-22T13:40:55;3.20;;;2.03;;
12072;SDS011;6098;49.004;8.372;2023-07-22T13:55:50;4.48;;;2.06;;
12072;SDS011;6098;49.004;8.372;2023-07-22T14:10:45;4.10;;;2.13;;
12072;SDS011;6098;49.004;8.372;2023-07-22T14:25:40;2.19;;;1.99;;
12072;SDS011;6098;49.004;8.372;2023-07-22T14:40:37;2.81;;;2.32;;
12072;SDS011;6098;49.004;8.372;2023-07-22T14:55:35;5.50;;;2.57;;
12072;SDS011;6098;49.004;8.372;2023-07-22T15:10:28;5.21;;;2.59;;
12072;SDS011;6098;49.004;8.372;2023-07-22T15:25:23;3.24;;;2.94;;
12072;SDS011;6098;49.004;8.372;2023-07-22T15:40:22;3.51;;;2.50;;
12072;SDS011;6098;49.004;8.372;2023-07-22T15:55:25;3.91;;;2.61;;
12072;SDS011;6098;49.004;8.372;2023-07-22T16:10:24;3.03;;;2.54;;
12072;SDS011;6098;49.004;8.372;2023-07-22T16:25:15;3.09;;;2.33;;
12072;SDS011;6098;49.004;8.372;2023-07-22T16:40:06;4.47;;;2.50;;
12072;SDS011;6098;49.004;8.372;2023-07-22T16:54:58;3.30;;;2.49;;
12072;SDS011;6098;49.004;8.372;2023-07-22T17:09:52;2.37;;;2.17;;
12072;SDS011;6098;49.004;8.372;2023-07-22T17:24:46;3.36;;;2.50;;
12072;SDS011;6098;49.004;8.372;2023-07-22T17:39:39;3.59;;;2.41;;
12072;SDS011;6098;49.004;8.372;2023-07-22T17:54:34;2.71;;;2.39;;
12072;SDS011;6098;49.004;8.372;2023-07-22T18:09:31;7.91;;;6.06;;
12072;SDS011;6098;49.004;8.372;2023-07-22T18:24:21;3.19;;;2.70;;
12072;SDS011;6098;49.004;8.372;2023-07-22T18:39:12;3.46;;;2.43;;
12072;SDS011;6098;49.004;8.372;2023-07-22T18:54:05;4.54;;;2.48;;
12072;SDS011;6098;49.004;8.372;2023-07-22T19:08:57;17.80;;;5.24;;
12072;SDS011;6098;49.004;8.372;2023-07-22T19:23:49;25.07;;;8.04;;
12072;SDS011;6098;49.004;8.372;2023-07-22T19:38:43;29.26;;;9.87;;
12072;SDS011;6098;49.004;8.372;2023-07-22T19:53:36;22.27;;;8.41;;
12072;SDS011;6098;49.004;8.372;2023-07-22T20:08:27;24.41;;;8.24;;
12072;SDS011;6098;49.004;8.372;2023-07-22T20:23:21;25.58;;;7.84;;
12072;SDS011;6098;49.004;8.372;2023-07-22T21:54:45;15.35;;;7.10;;
12072;SDS011;6098;49.004;8.372;2023-07-22T22:09:40;13.98;;;6.18;;
12072;SDS011;6098;49.004;8.372;2023-07-22T22:24:32;7.36;;;3.79;;
12072;SDS011;6098;49.004;8.372;2023-07-22T22:39:24;12.30;;;6.95;;
12072;SDS011;6098;49.004;8.372;2023-07-22T22:54:18;17.46;;;5.61;;
12072;SDS011;6098;49.004;8.372;2023-07-22T23:09:14;12.57;;;4.90;;
12072;SDS011;6098;49.004;8.372;2023-07-22T23:24:10;9.94;;;4.55;;
12072;SDS011;6098;49.004;8.372;2023-07-22T23:39:02;10.99;;;5.96;;
12072;SDS011;6098;49.004;8.372;2023-07-22T23:53:54;16.65;;;8.81;;
